sensor_id;sensor_type;location;lat;lon;timestamp;temperature;humidity
21259;DHT22;10787;53.364;-1.480;2023-04-01T00:01:30;8.00;94.40
21259;DHT22;10787;53.364;-1.480;2023-04-01T00:04:14;8.00;63.60
21259;DHT22;10787;53.364;-1.480;2023-04-01T00:07:00;8.00;60.10
21259;DHT22;10787;53.364;-1.480;2023-04-01T00:09:45;8.00;45.80
21259;DHT22;10787;53.364;-1.480;2023-04-01T00:12:30;8.10;34.60
21259;DHT22;10787;53.364;-1.480;2023-04-01T00:15:14;8.10;31.20
21259;DHT22;10787;53.364;-1.480;2023-04-01T00:17:59;8.10;33.30
21259;DHT22;10787;53.364;-1.480;2023-04-01T00:20:46;8.10;25.10
21259;DHT22;10787;53.364;-1.480;2023-04-01T00:23:30;8.10;20.70
21259;DHT22;10787;53.364;-1.480;2023-04-01T00:26:16;8.00;18.00
21259;DHT22;10787;53.364;-1.480;2023-04-01T00:29:03;8.00;18.30
21259;DHT22;10787;53.364;-1.480;2023-04-01T00:31:48;8.00;13.40
21259;DHT22;10787;53.364;-1.480;2023-04-01T00:34:33;8.00;13.10
21259;DHT22;10787;53.364;-1.480;2023-04-01T00:37:17;8.00;8.20
21259;DHT22;10787;53.364;-1.480;2023-04-01T00:40:03;8.00;7.50
21259;DHT22;10787;53.364;-1.480;2023-04-01T00:42:49;8.00;5.10
21259;DHT22;10787;53.364;-1.480;2023-04-01T00:45:36;8.10;1.00
21259;DHT22;10787;53.364;-1.480;2023-04-01T00:48:33;8.00;1.00
21259;DHT22;10787;53.364;-1.480;2023-04-01T00:51:27;8.00;1.00
21259;DHT22;10787;53.364;-1.480;2023-04-01T00:54:13;8.00;1.00
21259;DHT22;10787;53.364;-1.480;2023-04-01T00:57:00;8.10;1.00
21259;DHT22;10787;53.364;-1.480;2023-04-01T00:59:49;8.00;1.00
21259;DHT22;10787;53.364;-1.480;2023-04-01T01:02:36;8.10;1.00
21259;DHT22;10787;53.364;-1.480;2023-04-01T01:05:30;8.00;1.00
21259;DHT22;10787;53.364;-1.480;2023-04-01T01:08:45;8.10;1.00
21259;DHT22;10787;53.364;-1.480;2023-04-01T01:11:40;8.10;1.00
21259;DHT22;10787;53.364;-1.480;2023-04-01T01:17:55;8.00;1.00
21259;DHT22;10787;53.364;-1.480;2023-04-01T01:27:10;7.90;1.00
21259;DHT22;10787;53.364;-1.480;2023-04-01T01:36:17;7.90;1.00
21259;DHT22;10787;53.364;-1.480;2023-04-01T01:39:05;7.90;1.00
21259;DHT22;10787;53.364;-1.480;2023-04-01T01:41:50;7.90;1.00
21259;DHT22;10787;53.364;-1.480;2023-04-01T01:44:35;7.80;1.00
21259;DHT22;10787;53.364;-1.480;2023-04-01T01:47:22;7.90;1.00
21259;DHT22;10787;53.364;-1.480;2023-04-01T01:50:08;7.90;1.00
21259;DHT22;10787;53.364;-1.480;2023-04-01T01:53:07;7.80;1.00
21259;DHT22;10787;53.364;-1.480;2023-04-01T01:55:52;7.80;1.00
21259;DHT22;10787;53.364;-1.480;2023-04-01T01:58:45;7.80;1.00
21259;DHT22;10787;53.364;-1.480;2023-04-01T02:01:33;7.80;1.00
21259;DHT22;10787;53.364;-1.480;2023-04-01T02:04:19;7.80;1.00
21259;DHT22;10787;53.364;-1.480;2023-04-01T02:07:10;7.80;1.00
21259;DHT22;10787;53.364;-1.480;2023-04-01T02:09:56;7.70;1.00
21259;DHT22;10787;53.364;-1.480;2023-04-01T02:12:42;7.70;1.00
21259;DHT22;10787;53.364;-1.480;2023-04-01T02:15:31;7.80;1.00
21259;DHT22;10787;53.364;-1.480;2023-04-01T02:18:18;7.80;1.00
21259;DHT22;10787;53.364;-1.480;2023-04-01T02:21:03;7.80;1.00
21259;DHT22;10787;53.364;-1.480;2023-04-01T02:23:49;7.80;1.00
21259;DHT22;10787;53.364;-1.480;2023-04-01T02:26:35;7.70;1.00
21259;DHT22;10787;53.364;-1.480;2023-04-01T02:29:23;7.70;1.00
21259;DHT22;10787;53.364;-1.480;2023-04-01T02:32:10;7.70;1.00
21259;DHT22;10787;53.364;-1.480;2023-04-01T02:34:54;7.60;1.00
21259;DHT22;10787;53.364;-1.480;2023-04-01T02:37:40;7.60;1.00
21259;DHT22;10787;53.364;-1.480;2023-04-01T02:40:26;7.60;1.00
21259;DHT22;10787;53.364;-1.480;2023-04-01T02:43:10;7.60;1.00
21259;DHT22;10787;53.364;-1.480;2023-04-01T02:45:55;7.60;1.00
21259;DHT22;10787;53.364;-1.480;2023-04-01T02:48:39;7.60;1.00
21259;DHT22;10787;53.364;-1.480;2023-04-01T02:51:23;7.60;1.00
21259;DHT22;10787;53.364;-1.480;2023-04-01T02:54:09;7.50;1.00
21259;DHT22;10787;53.364;-1.480;2023-04-01T02:56:53;7.50;1.00
21259;DHT22;10787;53.364;-1.480;2023-04-01T02:59:38;7.50;1.00
21259;DHT22;10787;53.364;-1.480;2023-04-01T03:02:22;7.50;1.00
21259;DHT22;10787;53.364;-1.480;2023-04-01T03:05:07;7.50;1.00
21259;DHT22;10787;53.364;-1.480;2023-04-01T03:07:51;7.50;1.00
21259;DHT22;10787;53.364;-1.480;2023-04-01T03:10:36;7.40;1.00
21259;DHT22;10787;53.364;-1.480;2023-04-01T03:13:19;7.40;1.00
21259;DHT22;10787;53.364;-1.480;2023-04-01T03:16:04;7.40;1.00
21259;DHT22;10787;53.364;-1.480;2023-04-01T03:18:49;7.40;1.00
21259;DHT22;10787;53.364;-1.480;2023-04-01T03:21:34;7.40;1.00
21259;DHT22;10787;53.364;-1.480;2023-04-01T03:24:19;7.40;1.00
21259;DHT22;10787;53.364;-1.480;2023-04-01T03:27:04;7.40;1.00
21259;DHT22;10787;53.364;-1.480;2023-04-01T03:29:48;7.40;1.00
21259;DHT22;10787;53.364;-1.480;2023-04-01T03:32:33;7.40;1.00
21259;DHT22;10787;53.364;-1.480;2023-04-01T03:35:17;7.30;1.00
21259;DHT22;10787;53.364;-1.480;2023-04-01T03:38:02;7.30;1.00
21259;DHT22;10787;53.364;-1.480;2023-04-01T03:40:46;7.30;1.00
21259;DHT22;10787;53.364;-1.480;2023-04-01T03:43:30;7.30;1.00
21259;DHT22;10787;53.364;-1.480;2023-04-01T03:46:19;7.30;1.00
21259;DHT22;10787;53.364;-1.480;2023-04-01T03:49:07;7.30;1.00
21259;DHT22;10787;53.364;-1.480;2023-04-01T03:51:55;7.30;1.00
21259;DHT22;10787;53.364;-1.480;2023-04-01T03:54:39;7.20;1.00
21259;DHT22;10787;53.364;-1.480;2023-04-01T03:57:24;7.20;1.00
21259;DHT22;10787;53.364;-1.480;2023-04-01T04:00:09;7.20;1.00
21259;DHT22;10787;53.364;-1.480;2023-04-01T04:02:53;7.20;1.00
21259;DHT22;10787;53.364;-1.480;2023-04-01T04:05:49;7.20;1.00
21259;DHT22;10787;53.364;-1.480;2023-04-01T04:08:33;7.10;1.00
21259;DHT22;10787;53.364;-1.480;2023-04-01T04:11:19;7.20;1.00
21259;DHT22;10787;53.364;-1.480;2023-04-01T04:14:04;7.10;1.00
21259;DHT22;10787;53.364;-1.480;2023-04-01T04:16:48;7.20;1.00
21259;DHT22;10787;53.364;-1.480;2023-04-01T04:19:32;7.20;1.00
21259;DHT22;10787;53.364;-1.480;2023-04-01T04:22:20;7.20;1.00
21259;DHT22;10787;53.364;-1.480;2023-04-01T04:25:05;7.20;1.00
21259;DHT22;10787;53.364;-1.480;2023-04-01T04:27:49;7.10;1.00
21259;DHT22;10787;53.364;-1.480;2023-04-01T04:30:34;7.10;1.00
21259;DHT22;10787;53.364;-1.480;2023-04-01T04:33:19;7.10;1.00
21259;DHT22;10787;53.364;-1.480;2023-04-01T04:36:04;7.10;1.00
21259;DHT22;10787;53.364;-1.480;2023-04-01T04:38:49;7.10;1.00
21259;DHT22;10787;53.364;-1.480;2023-04-01T04:41:33;7.10;1.00
21259;DHT22;10787;53.364;-1.480;2023-04-01T04:44:17;7.10;1.00
21259;DHT22;10787;53.364;-1.480;2023-04-01T04:47:02;7.10;1.00
21259;DHT22;10787;53.364;-1.480;2023-04-01T04:49:46;7.10;1.00
21259;DHT22;10787;53.364;-1.480;2023-04-01T04:52:30;7.10;1.00
21259;DHT22;10787;53.364;-1.480;2023-04-01T04:55:14;7.10;1.00
21259;DHT22;10787;53.364;-1.480;2023-04-01T04:57:59;7.10;1.00
21259;DHT22;10787;53.364;-1.480;2023-04-01T05:00:43;7.10;1.00
21259;DHT22;10787;53.364;-1.480;2023-04-01T05:03:28;7.10;1.00
21259;DHT22;10787;53.364;-1.480;2023-04-01T05:06:16;7.00;1.00
21259;DHT22;10787;53.364;-1.480;2023-04-01T05:09:01;7.00;1.00
21259;DHT22;10787;53.364;-1.480;2023-04-01T05:11:45;7.00;1.00
21259;DHT22;10787;53.364;-1.480;2023-04-01T05:14:30;6.90;1.00
21259;DHT22;10787;53.364;-1.480;2023-04-01T05:17:14;7.00;1.00
21259;DHT22;10787;53.364;-1.480;2023-04-01T05:19:58;7.00;1.00
21259;DHT22;10787;53.364;-1.480;2023-04-01T05:22:43;7.00;1.00
21259;DHT22;10787;53.364;-1.480;2023-04-01T05:25:27;7.00;1.00
21259;DHT22;10787;53.364;-1.480;2023-04-01T05:28:12;7.00;1.00
21259;DHT22;10787;53.364;-1.480;2023-04-01T05:30:59;6.90;1.00
21259;DHT22;10787;53.364;-1.480;2023-04-01T05:33:44;6.90;1.00
21259;DHT22;10787;53.364;-1.480;2023-04-01T05:36:29;6.90;1.00
21259;DHT22;10787;53.364;-1.480;2023-04-01T05:39:13;6.90;1.00
21259;DHT22;10787;53.364;-1.480;2023-04-01T05:41:57;6.90;1.00
21259;DHT22;10787;53.364;-1.480;2023-04-01T05:44:41;6.90;1.00
21259;DHT22;10787;53.364;-1.480;2023-04-01T05:47:25;6.90;1.00
21259;DHT22;10787;53.364;-1.480;2023-04-01T05:50:10;6.80;1.00
21259;DHT22;10787;53.364;-1.480;2023-04-01T05:52:54;6.80;1.00
21259;DHT22;10787;53.364;-1.480;2023-04-01T05:55:39;6.80;1.00
21259;DHT22;10787;53.364;-1.480;2023-04-01T05:58:23;6.80;1.00
21259;DHT22;10787;53.364;-1.480;2023-04-01T06:01:10;6.80;1.00
21259;DHT22;10787;53.364;-1.480;2023-04-01T06:03:54;6.80;1.00
21259;DHT22;10787;53.364;-1.480;2023-04-01T06:06:39;6.90;1.00
21259;DHT22;10787;53.364;-1.480;2023-04-01T06:09:28;6.90;1.00
21259;DHT22;10787;53.364;-1.480;2023-04-01T06:12:21;6.90;1.00
21259;DHT22;10787;53.364;-1.480;2023-04-01T06:15:35;6.90;1.00
21259;DHT22;10787;53.364;-1.480;2023-04-01T06:21:45;7.00;1.00
21259;DHT22;10787;53.364;-1.480;2023-04-01T06:25:03;7.00;1.00
21259;DHT22;10787;53.364;-1.480;2023-04-01T06:30:43;7.20;1.00
21259;DHT22;10787;53.364;-1.480;2023-04-01T06:52:27;7.30;1.00
21259;DHT22;10787;53.364;-1.480;2023-04-01T06:55:29;7.40;1.00
21259;DHT22;10787;53.364;-1.480;2023-04-01T06:58:33;7.40;1.00
21259;DHT22;10787;53.364;-1.480;2023-04-01T07:01:42;7.50;1.00
21259;DHT22;10787;53.364;-1.480;2023-04-01T07:04:36;7.50;1.00
21259;DHT22;10787;53.364;-1.480;2023-04-01T07:07:37;7.60;1.00
21259;DHT22;10787;53.364;-1.480;2023-04-01T07:10:33;7.70;1.00
21259;DHT22;10787;53.364;-1.480;2023-04-01T07:13:25;7.70;1.00
21259;DHT22;10787;53.364;-1.480;2023-04-01T07:19:29;7.80;1.00
21259;DHT22;10787;53.364;-1.480;2023-04-01T07:22:29;7.80;1.00
21259;DHT22;10787;53.364;-1.480;2023-04-01T07:25:29;7.80;1.00
21259;DHT22;10787;53.364;-1.480;2023-04-01T07:28:16;7.90;1.00
21259;DHT22;10787;53.364;-1.480;2023-04-01T07:31:22;7.90;1.00
21259;DHT22;10787;53.364;-1.480;2023-04-01T07:34:19;8.00;1.00
21259;DHT22;10787;53.364;-1.480;2023-04-01T07:37:15;8.10;1.00
21259;DHT22;10787;53.364;-1.480;2023-04-01T07:48:35;8.30;1.00
21259;DHT22;10787;53.364;-1.480;2023-04-01T07:51:31;8.20;1.00
21259;DHT22;10787;53.364;-1.480;2023-04-01T07:54:40;8.10;1.00
21259;DHT22;10787;53.364;-1.480;2023-04-01T08:00:24;8.10;1.00
21259;DHT22;10787;53.364;-1.480;2023-04-01T08:03:24;8.10;1.00
21259;DHT22;10787;53.364;-1.480;2023-04-01T08:12:18;8.00;1.00
21259;DHT22;10787;53.364;-1.480;2023-04-01T08:15:15;8.00;1.00
21259;DHT22;10787;53.364;-1.480;2023-04-01T08:21:02;8.10;1.00
21259;DHT22;10787;53.364;-1.480;2023-04-01T08:23:49;8.10;1.00
21259;DHT22;10787;53.364;-1.480;2023-04-01T08:26:39;8.20;1.00
21259;DHT22;10787;53.364;-1.480;2023-04-01T08:29:40;8.30;1.00
21259;DHT22;10787;53.364;-1.480;2023-04-01T08:32:30;8.50;1.00
21259;DHT22;10787;53.364;-1.480;2023-04-01T08:35:34;8.70;1.00
21259;DHT22;10787;53.364;-1.480;2023-04-01T08:38:39;8.80;1.00
21259;DHT22;10787;53.364;-1.480;2023-04-01T08:41:36;8.80;1.00
21259;DHT22;10787;53.364;-1.480;2023-04-01T09:10:08;8.70;1.00
21259;DHT22;10787;53.364;-1.480;2023-04-01T09:19:01;8.70;1.00
21259;DHT22;10787;53.364;-1.480;2023-04-01T09:24:58;8.60;1.00
21259;DHT22;10787;53.364;-1.480;2023-04-01T09:37:07;9.20;1.00
21259;DHT22;10787;53.364;-1.480;2023-04-01T09:52:59;10.10;1.00
21259;DHT22;10787;53.364;-1.480;2023-04-01T10:05:48;10.10;1.00
21259;DHT22;10787;53.364;-1.480;2023-04-01T10:11:45;10.20;1.00
21259;DHT22;10787;53.364;-1.480;2023-04-01T11:22:01;9.80;1.00
21259;DHT22;10787;53.364;-1.480;2023-04-01T11:33:57;10.50;1.00
21259;DHT22;10787;53.364;-1.480;2023-04-01T11:40:05;10.80;1.00
21259;DHT22;10787;53.364;-1.480;2023-04-01T11:49:51;10.90;1.00
21259;DHT22;10787;53.364;-1.480;2023-04-01T11:55:57;10.40;1.00
21259;DHT22;10787;53.364;-1.480;2023-04-01T11:58:55;10.30;1.00
21259;DHT22;10787;53.364;-1.480;2023-04-01T12:01:45;10.30;1.00
21259;DHT22;10787;53.364;-1.480;2023-04-01T12:07:36;10.20;1.00
21259;DHT22;10787;53.364;-1.480;2023-04-01T12:10:57;10.30;1.00
21259;DHT22;10787;53.364;-1.480;2023-04-01T12:23:28;10.00;1.00
21259;DHT22;10787;53.364;-1.480;2023-04-01T12:27:06;10.00;1.00
21259;DHT22;10787;53.364;-1.480;2023-04-01T12:33:10;10.30;1.00
21259;DHT22;10787;53.364;-1.480;2023-04-01T12:45:34;11.00;1.00
21259;DHT22;10787;53.364;-1.480;2023-04-01T12:52:03;11.20;1.00
21259;DHT22;10787;53.364;-1.480;2023-04-01T12:54:55;11.20;1.00
21259;DHT22;10787;53.364;-1.480;2023-04-01T13:10:01;10.90;1.00
21259;DHT22;10787;53.364;-1.480;2023-04-01T13:16:17;11.10;1.00
21259;DHT22;10787;53.364;-1.480;2023-04-01T13:43:47;11.80;1.00
21259;DHT22;10787;53.364;-1.480;2023-04-01T13:52:56;10.80;1.00
21259;DHT22;10787;53.364;-1.480;2023-04-01T13:59:22;10.90;1.00
21259;DHT22;10787;53.364;-1.480;2023-04-01T14:05:24;10.90;1.00
21259;DHT22;10787;53.364;-1.480;2023-04-01T14:23:21;11.10;1.00
21259;DHT22;10787;53.364;-1.480;2023-04-01T14:54:34;11.50;1.00
21259;DHT22;10787;53.364;-1.480;2023-04-01T14:57:28;11.40;1.00
21259;DHT22;10787;53.364;-1.480;2023-04-01T15:00:15;11.30;1.00
21259;DHT22;10787;53.364;-1.480;2023-04-01T15:06:43;11.10;1.00
21259;DHT22;10787;53.364;-1.480;2023-04-01T15:29:16;10.80;1.00
21259;DHT22;10787;53.364;-1.480;2023-04-01T15:31:54;10.60;1.00
21259;DHT22;10787;53.364;-1.480;2023-04-01T15:34:55;10.50;1.00
21259;DHT22;10787;53.364;-1.480;2023-04-01T15:41:26;10.60;1.00
21259;DHT22;10787;53.364;-1.480;2023-04-01T15:44:37;10.70;1.00
21259;DHT22;10787;53.364;-1.480;2023-04-01T15:56:11;11.00;1.00
21259;DHT22;10787;53.364;-1.480;2023-04-01T16:20:57;10.60;1.00
21259;DHT22;10787;53.364;-1.480;2023-04-01T16:23:51;10.60;1.00
21259;DHT22;10787;53.364;-1.480;2023-04-01T16:29:53;10.60;1.00
21259;DHT22;10787;53.364;-1.480;2023-04-01T16:33:01;10.50;1.00
21259;DHT22;10787;53.364;-1.480;2023-04-01T16:35:50;10.50;1.00
21259;DHT22;10787;53.364;-1.480;2023-04-01T16:41:38;10.30;1.00
21259;DHT22;10787;53.364;-1.480;2023-04-01T16:44:29;10.10;1.00
21259;DHT22;10787;53.364;-1.480;2023-04-01T16:47:28;10.00;1.00
21259;DHT22;10787;53.364;-1.480;2023-04-01T16:51:09;9.90;1.00
21259;DHT22;10787;53.364;-1.480;2023-04-01T16:53:40;9.90;1.00
21259;DHT22;10787;53.364;-1.480;2023-04-01T16:56:42;9.90;1.00
21259;DHT22;10787;53.364;-1.480;2023-04-01T16:59:39;9.90;1.00
21259;DHT22;10787;53.364;-1.480;2023-04-01T17:02:28;9.80;1.00
21259;DHT22;10787;53.364;-1.480;2023-04-01T17:05:18;9.70;1.00
21259;DHT22;10787;53.364;-1.480;2023-04-01T17:08:29;9.70;1.00
21259;DHT22;10787;53.364;-1.480;2023-04-01T17:11:24;9.50;1.00
21259;DHT22;10787;53.364;-1.480;2023-04-01T17:20:08;9.20;1.00
21259;DHT22;10787;53.364;-1.480;2023-04-01T17:23:19;9.20;1.00
21259;DHT22;10787;53.364;-1.480;2023-04-01T17:32:14;9.00;1.00
21259;DHT22;10787;53.364;-1.480;2023-04-01T17:35:19;9.00;1.00
21259;DHT22;10787;53.364;-1.480;2023-04-01T17:38:34;8.90;1.00
21259;DHT22;10787;53.364;-1.480;2023-04-01T18:07:11;8.80;1.00
21259;DHT22;10787;53.364;-1.480;2023-04-01T18:13:49;8.70;1.00
21259;DHT22;10787;53.364;-1.480;2023-04-01T18:17:07;8.70;1.00
21259;DHT22;10787;53.364;-1.480;2023-04-01T18:23:19;8.60;1.00
21259;DHT22;10787;53.364;-1.480;2023-04-01T18:26:24;8.60;1.00
21259;DHT22;10787;53.364;-1.480;2023-04-01T18:29:51;8.60;1.00
21259;DHT22;10787;53.364;-1.480;2023-04-01T18:32:44;8.60;1.00
21259;DHT22;10787;53.364;-1.480;2023-04-01T18:35:51;8.50;1.00
21259;DHT22;10787;53.364;-1.480;2023-04-01T18:38:40;8.50;1.00
21259;DHT22;10787;53.364;-1.480;2023-04-01T18:41:30;8.50;1.00
21259;DHT22;10787;53.364;-1.480;2023-04-01T18:47:44;8.40;1.00
21259;DHT22;10787;53.364;-1.480;2023-04-01T18:54:15;8.40;1.00
21259;DHT22;10787;53.364;-1.480;2023-04-01T18:57:16;8.40;1.00
21259;DHT22;10787;53.364;-1.480;2023-04-01T19:00:14;8.30;1.00
21259;DHT22;10787;53.364;-1.480;2023-04-01T19:03:11;8.30;1.00
21259;DHT22;10787;53.364;-1.480;2023-04-01T19:06:00;8.30;1.00
21259;DHT22;10787;53.364;-1.480;2023-04-01T19:08:45;8.30;1.00
21259;DHT22;10787;53.364;-1.480;2023-04-01T19:11:45;8.30;1.00
21259;DHT22;10787;53.364;-1.480;2023-04-01T19:15:09;8.40;1.00
21259;DHT22;10787;53.364;-1.480;2023-04-01T19:27:10;8.40;1.00
21259;DHT22;10787;53.364;-1.480;2023-04-01T19:36:26;8.40;1.00
21259;DHT22;10787;53.364;-1.480;2023-04-01T20:01:00;8.40;1.00
21259;DHT22;10787;53.364;-1.480;2023-04-01T20:06:43;8.40;1.00
21259;DHT22;10787;53.364;-1.480;2023-04-01T20:10:10;8.40;1.00
21259;DHT22;10787;53.364;-1.480;2023-04-01T20:16:06;8.50;1.00
21259;DHT22;10787;53.364;-1.480;2023-04-01T20:18:59;8.60;1.00
21259;DHT22;10787;53.364;-1.480;2023-04-01T20:21:47;8.60;1.00
21259;DHT22;10787;53.364;-1.480;2023-04-01T20:24:46;8.70;1.00
21259;DHT22;10787;53.364;-1.480;2023-04-01T20:27:39;8.70;1.00
21259;DHT22;10787;53.364;-1.480;2023-04-01T20:50:21;8.50;1.00
21259;DHT22;10787;53.364;-1.480;2023-04-01T20:53:16;8.50;1.00
21259;DHT22;10787;53.364;-1.480;2023-04-01T21:12:23;8.40;1.00
21259;DHT22;10787;53.364;-1.480;2023-04-01T21:15:43;8.30;1.00
21259;DHT22;10787;53.364;-1.480;2023-04-01T21:18:47;8.30;1.00
21259;DHT22;10787;53.364;-1.480;2023-04-01T21:52:48;8.10;1.00
21259;DHT22;10787;53.364;-1.480;2023-04-01T22:01:56;8.00;1.00
21259;DHT22;10787;53.364;-1.480;2023-04-01T22:17:05;7.80;1.00
21259;DHT22;10787;53.364;-1.480;2023-04-01T22:23:26;7.70;1.00
21259;DHT22;10787;53.364;-1.480;2023-04-01T22:26:56;7.70;1.00
21259;DHT22;10787;53.364;-1.480;2023-04-01T22:29:31;7.60;1.00
21259;DHT22;10787;53.364;-1.480;2023-04-01T22:32:31;7.60;1.00
21259;DHT22;10787;53.364;-1.480;2023-04-01T22:35:52;7.60;1.00
21259;DHT22;10787;53.364;-1.480;2023-04-01T22:38:47;7.60;1.00
21259;DHT22;10787;53.364;-1.480;2023-04-01T22:47:55;7.60;1.00
21259;DHT22;10787;53.364;-1.480;2023-04-01T22:50:56;7.60;1.00
21259;DHT22;10787;53.364;-1.480;2023-04-01T22:57:12;7.60;1.00
21259;DHT22;10787;53.364;-1.480;2023-04-01T23:00:05;7.60;1.00
21259;DHT22;10787;53.364;-1.480;2023-04-01T23:06:17;7.60;1.00
21259;DHT22;10787;53.364;-1.480;2023-04-01T23:09:19;7.60;1.00
21259;DHT22;10787;53.364;-1.480;2023-04-01T23:12:09;7.60;1.00
21259;DHT22;10787;53.364;-1.480;2023-04-01T23:14:56;7.60;1.00
21259;DHT22;10787;53.364;-1.480;2023-04-01T23:18:09;7.60;1.00
21259;DHT22;10787;53.364;-1.480;2023-04-01T23:27:12;7.60;1.00
21259;DHT22;10787;53.364;-1.480;2023-04-01T23:30:01;7.60;1.00
21259;DHT22;10787;53.364;-1.480;2023-04-01T23:32:47;7.60;1.00
21259;DHT22;10787;53.364;-1.480;2023-04-01T23:35:31;7.60;1.00
21259;DHT22;10787;53.364;-1.480;2023-04-01T23:38:16;7.60;1.00
21259;DHT22;10787;53.364;-1.480;2023-04-01T23:41:01;7.60;1.00
21259;DHT22;10787;53.364;-1.480;2023-04-01T23:43:54;7.60;1.00
21259;DHT22;10787;53.364;-1.480;2023-04-01T23:46:41;7.60;1.00
21259;DHT22;10787;53.364;-1.480;2023-04-01T23:49:39;7.60;1.00
21259;DHT22;10787;53.364;-1.480;2023-04-01T23:52:27;7.60;1.00
21259;DHT22;10787;53.364;-1.480;2023-04-01T23:55:21;7.60;1.00
